Accueil
METAR-TAF:

METAR-TAF

Aéroports :

Seyresse

Dax, France

latitude: 43-41N, longitude: 001-04W, altitude: 32 m

Observation

Le bulletin a été fait il y a 41 minutes, à 18:30 UTC
Vent 7 kt de ouest/sud-ouest, variant entre sud-ouest et ouest/nord-ouest
Température 24°C
Humidité 78%
Pression 1017 hPa

METAR: LFBY 201830Z AUTO 25007KT 230V300 //// // ////// 24/20 Q1017

Heure: 21:11 (19:11 UTC)

Prévision

Le bulletin a été fait il y a 11 heures et 11 minutes, à 08:00 UTC
Prévision valable du 20 à 09 UTC au 20 à 18 UTC
Vent 2 kt de direction variable
Visibilité 10 km ou plus
Quelques nuages à une hauteur de 600 ft

TAF: LFBY 200800Z 2009/2018 VRB02KT 9999 FEW006

Observations et prévisions météorologiques de plus de 4000 aéroports (messages METAR et TAF).

Les stations disponibles sont représentées par des disques jaunes et rouges sur la carte.

Passer la souris dessus pour voir le nom de la station.

Cliquer dessus pour voir les observations et prévisions météorologiques.

Pour changer de carte: cliquez sur les boutons verts avec une croix noire pour zoomer, sur le bouton vert avec un tiret pour effectuer un zoom arrière, ou sur les flèches vertes pour les cartes adjacentes.


METAR-TAF: